createdAt,value
2022-10-22T00:00:00.850Z,14.98
2022-10-22T00:02:27.849Z,15.00
2022-10-22T00:04:56.908Z,11.85
2022-10-22T00:07:23.612Z,15.02
2022-10-22T00:09:50.086Z,12.43
2022-10-22T00:12:16.702Z,13.55
2022-10-22T00:14:43.124Z,13.23
2022-10-22T00:17:11.528Z,14.13
2022-10-22T00:19:38.890Z,13.18
2022-10-22T00:22:05.844Z,14.57
2022-10-22T00:24:33.664Z,13.25
2022-10-22T00:27:00.226Z,13.90
2022-10-22T00:29:26.652Z,13.75
2022-10-22T00:31:53.136Z,12.13
2022-10-22T00:34:21.297Z,14.32
2022-10-22T00:36:51.745Z,13.93
2022-10-22T00:39:19.770Z,11.30
2022-10-22T00:41:48.081Z,12.00
2022-10-22T00:44:52.200Z,13.25
2022-10-22T00:47:19.242Z,12.13
2022-10-22T00:49:46.894Z,13.30
2022-10-22T00:52:15.131Z,12.70
2022-10-22T00:54:42.490Z,12.57
2022-10-22T00:57:09.534Z,12.60
2022-10-22T00:59:37.371Z,13.18
2022-10-22T01:02:04.373Z,12.10
2022-10-22T01:04:30.790Z,10.50
2022-10-22T01:06:57.433Z,12.10
2022-10-22T01:09:45.868Z,11.38
2022-10-22T01:12:18.333Z,11.65
2022-10-22T01:15:02.588Z,10.60
2022-10-22T01:17:40.853Z,10.68
2022-10-22T01:20:39.935Z,10.85
2022-10-22T01:23:50.886Z,12.80
2022-10-22T01:26:43.846Z,14.23
2022-10-22T01:29:18.434Z,13.55
2022-10-22T01:31:54.012Z,12.27
2022-10-22T01:34:22.074Z,13.55
2022-10-22T01:36:50.287Z,12.90
2022-10-22T01:39:17.880Z,12.38
2022-10-22T01:41:48.233Z,14.52
2022-10-22T01:47:39.299Z,10.68
2022-10-22T01:50:30.174Z,13.07
2022-10-22T01:53:07.364Z,11.82
2022-10-22T01:56:06.448Z,10.73
2022-10-22T01:58:38.678Z,10.38
2022-10-22T02:01:32.010Z,10.93
2022-10-22T02:04:22.702Z,10.75
2022-10-22T02:06:54.753Z,10.75
2022-10-22T02:09:24.122Z,12.73
2022-10-22T02:11:51.154Z,13.90
2022-10-22T02:14:19.536Z,11.35
2022-10-22T02:16:48.559Z,12.07
2022-10-22T02:19:25.287Z,12.27
2022-10-22T02:21:52.589Z,11.05
2022-10-22T02:24:19.663Z,10.55
2022-10-22T02:27:04.674Z,11.63
2022-10-22T02:29:39.346Z,11.50
2022-10-22T02:32:08.792Z,12.00
2022-10-22T02:34:35.537Z,11.45
2022-10-22T02:37:03.172Z,12.00
2022-10-22T02:39:31.480Z,11.27
2022-10-22T02:42:00.504Z,11.65
2022-10-22T02:44:26.924Z,9.77
2022-10-22T02:46:53.378Z,10.82
2022-10-22T02:49:19.952Z,10.20
2022-10-22T02:51:46.872Z,9.73
2022-10-22T02:54:13.286Z,11.07
2022-10-22T02:56:39.768Z,9.80
2022-10-22T02:59:06.225Z,10.88
2022-10-22T03:01:32.665Z,11.15
2022-10-22T03:03:59.200Z,9.60
2022-10-22T03:08:52.015Z,10.30
2022-10-22T03:11:18.463Z,13.48
2022-10-22T03:13:45.042Z,12.90
2022-10-22T03:16:11.704Z,11.93
2022-10-22T03:18:38.158Z,14.02
2022-10-22T03:21:11.035Z,12.15
2022-10-22T03:23:38.888Z,11.52
2022-10-22T03:26:07.167Z,11.48
2022-10-22T03:28:35.651Z,11.77
2022-10-22T03:31:02.048Z,11.10
2022-10-22T03:33:28.483Z,10.70
2022-10-22T03:35:54.925Z,10.43
2022-10-22T03:38:21.346Z,10.32
2022-10-22T03:40:47.869Z,10.10
2022-10-22T03:43:14.554Z,10.60
2022-10-22T03:45:40.989Z,9.88
2022-10-22T03:48:07.457Z,10.95
2022-10-22T03:50:33.940Z,10.27
2022-10-22T03:53:00.416Z,10.02
2022-10-22T03:55:27.014Z,8.95
2022-10-22T03:57:53.428Z,9.73
2022-10-22T04:00:19.907Z,10.55
2022-10-22T04:02:46.312Z,10.10
2022-10-22T04:07:44.170Z,9.73
2022-10-22T04:10:10.662Z,10.13
2022-10-22T04:12:37.073Z,9.57
2022-10-22T04:15:04.405Z,9.27
2022-10-22T04:17:35.475Z,9.18
2022-10-22T04:20:03.419Z,9.82
2022-10-22T04:22:29.866Z,9.52
2022-10-22T04:24:56.537Z,8.27
2022-10-22T04:27:22.936Z,8.93
2022-10-22T04:29:49.422Z,9.55
2022-10-22T04:32:16.016Z,9.18
2022-10-22T04:34:42.467Z,8.63
2022-10-22T04:37:08.878Z,9.15
2022-10-22T04:39:35.349Z,10.45
2022-10-22T04:42:01.781Z,10.02
2022-10-22T04:44:28.234Z,10.90
2022-10-22T04:46:54.652Z,10.70
2022-10-22T04:49:21.228Z,9.85
2022-10-22T04:51:47.632Z,11.93
2022-10-22T04:54:15.052Z,10.27
2022-10-22T04:56:41.747Z,10.45
2022-10-22T04:59:09.168Z,11.45
2022-10-22T05:01:42.608Z,10.48
2022-10-22T05:04:12.882Z,9.32
2022-10-22T05:06:39.385Z,9.40
2022-10-22T05:09:08.464Z,10.40
2022-10-22T05:11:37.557Z,9.25
2022-10-22T05:14:07.672Z,9.27
2022-10-22T05:16:34.920Z,9.57
2022-10-22T05:19:02.952Z,9.57
2022-10-22T05:21:29.692Z,10.55
2022-10-22T05:23:57.369Z,8.93
2022-10-22T05:26:25.005Z,7.95
2022-10-22T05:28:52.233Z,8.75
2022-10-22T05:31:18.992Z,8.52
2022-10-22T05:33:46.054Z,7.65
2022-10-22T05:36:16.228Z,9.93
2022-10-22T05:38:42.667Z,8.10
2022-10-22T05:41:14.059Z,8.07
2022-10-22T05:43:41.207Z,9.52
2022-10-22T05:46:10.109Z,8.50
2022-10-22T05:48:37.048Z,9.07
2022-10-22T05:51:05.993Z,9.30
2022-10-22T05:53:38.142Z,9.63
2022-10-22T05:56:08.109Z,10.55
2022-10-22T05:58:36.215Z,10.90
2022-10-22T06:01:08.612Z,10.48
2022-10-22T06:03:35.090Z,9.02
2022-10-22T06:06:04.662Z,9.52
2022-10-22T06:08:31.179Z,9.60
2022-10-22T06:10:58.053Z,9.68
2022-10-22T06:13:24.464Z,10.25
2022-10-22T06:15:53.773Z,10.70
2022-10-22T06:18:20.444Z,10.75
2022-10-22T06:20:48.004Z,10.50
2022-10-22T06:23:15.275Z,10.80
2022-10-22T06:25:42.453Z,10.27
2022-10-22T06:28:09.043Z,10.80
2022-10-22T06:30:37.607Z,10.85
2022-10-22T06:33:04.138Z,11.90
2022-10-22T06:35:30.666Z,13.15
2022-10-22T06:37:57.062Z,13.15
2022-10-22T06:40:24.424Z,13.00
2022-10-22T06:42:50.988Z,13.32
2022-10-22T06:45:17.404Z,13.25
2022-10-22T06:47:44.318Z,12.90
2022-10-22T06:50:10.754Z,12.82
2022-10-22T06:52:37.210Z,12.98
2022-10-22T06:55:03.751Z,12.57
2022-10-22T06:57:31.571Z,12.90
2022-10-22T06:59:58.002Z,13.07
2022-10-22T07:02:24.503Z,13.75
2022-10-22T07:04:50.954Z,15.93
2022-10-22T07:07:17.395Z,15.55
2022-10-22T07:09:46.914Z,14.95
2022-10-22T07:12:14.148Z,15.40
2022-10-22T07:14:40.598Z,15.05
2022-10-22T07:17:07.040Z,14.23
2022-10-22T07:19:33.654Z,12.43
2022-10-22T07:22:00.503Z,15.13
2022-10-22T07:24:26.923Z,13.55
2022-10-22T07:26:53.562Z,12.73
2022-10-22T07:29:20.155Z,13.18
2022-10-22T07:31:46.606Z,12.90
2022-10-22T07:34:13.025Z,11.77
2022-10-22T07:36:39.501Z,12.30
2022-10-22T07:39:05.942Z,12.77
2022-10-22T07:41:32.371Z,12.50
2022-10-22T07:43:58.977Z,12.80
2022-10-22T07:46:26.045Z,11.15
2022-10-22T07:48:52.896Z,12.10
2022-10-22T07:51:19.638Z,11.85
2022-10-22T07:53:46.178Z,12.60
2022-10-22T07:56:12.662Z,11.32
2022-10-22T07:58:41.524Z,10.85
2022-10-22T08:01:07.987Z,12.38
2022-10-22T08:03:35.515Z,13.55
2022-10-22T08:06:02.494Z,11.68
2022-10-22T08:08:30.932Z,12.02
2022-10-22T08:11:00.150Z,11.27
2022-10-22T08:13:27.526Z,11.30
2022-10-22T08:15:57.316Z,10.60
2022-10-22T08:18:24.377Z,11.10
2022-10-22T08:20:51.135Z,10.77
2022-10-22T08:23:17.535Z,9.65
2022-10-22T08:25:44.066Z,10.13
2022-10-22T08:28:10.619Z,11.40
2022-10-22T08:30:38.623Z,10.30
2022-10-22T08:33:05.712Z,10.57
2022-10-22T08:35:32.144Z,10.73
2022-10-22T08:37:58.636Z,10.02
2022-10-22T08:40:39.994Z,10.88
2022-10-22T08:43:39.329Z,9.65
2022-10-22T08:46:23.991Z,9.95
2022-10-22T08:49:00.332Z,10.38
2022-10-22T08:51:32.767Z,9.90
2022-10-22T08:54:13.530Z,10.63
2022-10-22T08:56:45.639Z,11.23
2022-10-22T08:59:20.115Z,9.98
2022-10-22T09:01:49.070Z,10.55
2022-10-22T09:04:37.331Z,10.45
2022-10-22T09:07:04.001Z,10.73
2022-10-22T09:09:38.149Z,10.15
2022-10-22T09:12:05.425Z,12.13
2022-10-22T09:14:31.820Z,10.95
2022-10-22T09:17:38.615Z,10.43
2022-10-22T09:20:28.503Z,10.60
2022-10-22T09:23:20.800Z,10.88
2022-10-22T09:25:53.462Z,11.30
2022-10-22T09:28:19.916Z,12.13
2022-10-22T09:30:46.424Z,12.25
2022-10-22T09:33:21.469Z,14.98
2022-10-22T09:38:21.941Z,11.30
2022-10-22T09:40:51.352Z,11.88
2022-10-22T09:43:18.514Z,10.10
2022-10-22T09:45:46.372Z,11.80
2022-10-22T09:48:21.396Z,10.85
2022-10-22T09:50:50.211Z,10.88
2022-10-22T09:53:25.181Z,9.85
2022-10-22T09:58:22.726Z,11.05
2022-10-22T10:00:58.539Z,11.15
2022-10-22T10:03:31.292Z,9.93
2022-10-22T10:06:06.391Z,10.48
2022-10-22T10:08:33.113Z,11.13
2022-10-22T10:11:05.792Z,10.85
2022-10-22T10:13:40.490Z,10.90
2022-10-22T10:16:24.734Z,10.27
2022-10-22T10:19:21.804Z,8.98
2022-10-22T10:22:06.604Z,11.27
2022-10-22T10:24:54.782Z,10.27
2022-10-22T10:27:39.873Z,11.00
2022-10-22T10:30:20.833Z,10.20
2022-10-22T10:33:02.691Z,9.88
2022-10-22T10:35:35.058Z,9.82
2022-10-22T10:38:15.392Z,10.75
2022-10-22T10:40:57.404Z,9.30
2022-10-22T10:43:35.905Z,9.57
2022-10-22T10:46:19.786Z,9.55
2022-10-22T10:49:38.735Z,8.68
2022-10-22T10:52:37.135Z,9.93
2022-10-22T10:55:25.719Z,8.70
2022-10-22T10:58:19.912Z,8.93
2022-10-22T11:01:04.562Z,9.63
2022-10-22T11:03:45.964Z,10.18
2022-10-22T11:06:16.144Z,10.38
2022-10-22T11:08:55.079Z,9.70
2022-10-22T11:11:26.689Z,9.70
2022-10-22T11:14:11.375Z,9.32
2022-10-22T11:16:48.205Z,9.15
2022-10-22T11:19:46.255Z,9.43
2022-10-22T11:22:22.415Z,8.85
2022-10-22T11:24:59.551Z,10.23
2022-10-22T11:27:51.389Z,9.45
2022-10-22T11:30:21.481Z,10.00
2022-10-22T11:33:02.927Z,9.13
2022-10-22T11:35:41.640Z,9.38
2022-10-22T11:38:12.221Z,8.88
2022-10-22T11:40:43.764Z,8.02
2022-10-22T11:43:25.456Z,8.05
2022-10-22T11:46:00.597Z,7.95
2022-10-22T11:48:28.820Z,7.78
2022-10-22T11:50:59.954Z,8.32
2022-10-22T11:53:35.139Z,8.30
2022-10-22T11:56:07.586Z,8.57
2022-10-22T11:58:39.131Z,7.15
2022-10-22T12:01:08.452Z,7.05
2022-10-22T12:03:34.819Z,6.68
2022-10-22T12:06:15.714Z,6.03
2022-10-22T12:08:52.213Z,6.13
2022-10-22T12:11:36.389Z,7.13
2022-10-22T12:14:26.496Z,6.15
2022-10-22T12:16:57.747Z,4.80
2022-10-22T12:19:36.284Z,5.68
2022-10-22T12:22:25.691Z,5.00
2022-10-22T12:24:54.535Z,6.00
2022-10-22T12:27:33.331Z,4.65
2022-10-22T12:30:00.944Z,6.78
2022-10-22T12:32:36.380Z,8.85
2022-10-22T12:35:08.330Z,7.80
2022-10-22T12:37:41.550Z,4.50
2022-10-22T12:40:26.102Z,5.13
2022-10-22T12:42:55.518Z,6.68
2022-10-22T12:45:23.426Z,6.03
2022-10-22T12:47:52.262Z,6.55
2022-10-22T12:50:22.961Z,4.68
2022-10-22T12:52:49.521Z,4.45
2022-10-22T12:55:17.821Z,4.60
2022-10-22T12:57:47.178Z,4.00
2022-10-22T13:00:25.643Z,3.88
2022-10-22T13:02:53.014Z,3.85
2022-10-22T13:05:19.331Z,3.35
2022-10-22T13:08:03.598Z,3.90
2022-10-22T13:10:39.417Z,3.40
2022-10-22T13:13:06.980Z,5.28
2022-10-22T13:15:36.699Z,4.07
2022-10-22T13:18:22.723Z,3.40
2022-10-22T13:21:04.103Z,3.33
2022-10-22T13:23:32.819Z,3.80
2022-10-22T13:26:18.088Z,3.42
2022-10-22T13:28:55.820Z,2.78
2022-10-22T13:31:27.764Z,4.10
2022-10-22T13:33:57.627Z,3.70
2022-10-22T13:36:24.459Z,2.55
2022-10-22T13:38:50.939Z,2.80
2022-10-22T13:41:30.976Z,3.20
2022-10-22T13:43:58.193Z,2.55
2022-10-22T13:46:26.136Z,2.80
2022-10-22T13:48:54.676Z,2.55
2022-10-22T13:51:24.343Z,3.03
2022-10-22T13:53:52.837Z,2.35
2022-10-22T13:56:21.832Z,2.70
2022-10-22T13:58:48.575Z,2.13
2022-10-22T14:01:26.797Z,2.20
2022-10-22T14:03:55.240Z,2.50
2022-10-22T14:06:22.742Z,2.60
2022-10-22T14:08:58.422Z,2.47
2022-10-22T14:11:27.463Z,2.72
2022-10-22T14:13:54.618Z,2.65
2022-10-22T14:16:24.251Z,2.20
2022-10-22T14:18:51.248Z,2.75
2022-10-22T14:21:18.651Z,2.30
2022-10-22T14:23:47.679Z,2.40
2022-10-22T14:26:35.196Z,2.60
2022-10-22T14:29:10.720Z,2.17
2022-10-22T14:31:43.108Z,2.35
2022-10-22T14:34:11.453Z,2.33
2022-10-22T14:36:37.905Z,2.53
2022-10-22T14:39:04.537Z,2.15
2022-10-22T14:41:30.957Z,2.45
2022-10-22T14:43:59.574Z,2.60
2022-10-22T14:46:26.041Z,2.10
2022-10-22T14:48:52.440Z,2.55
2022-10-22T14:51:20.599Z,2.22
2022-10-22T14:53:47.862Z,2.33
2022-10-22T14:56:16.490Z,2.45
2022-10-22T14:58:42.967Z,2.10
2022-10-22T15:01:09.484Z,2.13
2022-10-22T15:03:36.437Z,2.30
2022-10-22T15:06:03.489Z,2.40
2022-10-22T15:08:30.401Z,2.38
2022-10-22T15:11:07.146Z,2.15
2022-10-22T15:13:37.134Z,2.55
2022-10-22T15:16:07.809Z,2.58
2022-10-22T15:18:34.662Z,2.70
2022-10-22T15:21:03.709Z,2.28
2022-10-22T15:23:30.859Z,2.30
2022-10-22T15:25:57.493Z,2.58
2022-10-22T15:28:24.685Z,2.15
2022-10-22T15:30:59.777Z,2.50
2022-10-22T15:33:28.018Z,2.30
2022-10-22T15:35:55.060Z,2.20
2022-10-22T15:38:21.860Z,2.30
2022-10-22T15:40:48.342Z,2.40
2022-10-22T15:43:14.760Z,2.50
2022-10-22T15:45:41.228Z,2.50
2022-10-22T15:48:07.644Z,2.72
2022-10-22T15:50:38.269Z,2.40
2022-10-22T15:53:04.766Z,2.35
2022-10-22T15:55:31.432Z,2.40
2022-10-22T15:57:59.407Z,2.40
2022-10-22T16:00:28.571Z,2.30
2022-10-22T16:02:55.334Z,2.35
2022-10-22T16:05:21.915Z,2.35
2022-10-22T16:07:48.328Z,2.30
2022-10-22T16:10:14.803Z,2.45
2022-10-22T16:12:41.531Z,2.47
2022-10-22T16:15:09.420Z,2.67
2022-10-22T16:17:35.992Z,2.47
2022-10-22T16:20:02.576Z,2.45
2022-10-22T16:22:29.073Z,2.42
2022-10-22T16:24:55.502Z,2.58
2022-10-22T16:27:22.104Z,2.55
2022-10-22T16:29:48.918Z,2.20
2022-10-22T16:32:16.399Z,2.95
2022-10-22T16:34:42.826Z,3.15
2022-10-22T16:37:10.273Z,2.55
2022-10-22T16:39:37.023Z,2.75
2022-10-22T16:42:03.838Z,2.65
2022-10-22T16:44:30.243Z,2.97
2022-10-22T16:46:56.647Z,3.67
2022-10-22T16:49:23.082Z,2.50
2022-10-22T16:51:49.500Z,2.90
2022-10-22T16:54:17.067Z,2.75
2022-10-22T16:56:43.530Z,2.20
2022-10-22T16:59:09.966Z,2.85
2022-10-22T17:01:40.572Z,2.50
2022-10-22T17:04:07.496Z,2.60
2022-10-22T17:06:34.615Z,2.60
2022-10-22T17:09:01.169Z,2.90
2022-10-22T17:11:30.120Z,3.10
2022-10-22T17:13:56.722Z,2.78
2022-10-22T17:16:24.591Z,2.78
2022-10-22T17:18:52.885Z,3.13
2022-10-22T17:21:19.698Z,3.25
2022-10-22T17:23:46.922Z,2.92
2022-10-22T17:26:17.136Z,3.10
2022-10-22T17:28:43.880Z,3.25
2022-10-22T17:31:25.104Z,3.97
2022-10-22T17:33:54.099Z,3.60
2022-10-22T17:36:21.991Z,3.20
2022-10-22T17:38:52.808Z,3.15
2022-10-22T17:41:21.971Z,3.20
2022-10-22T17:43:48.653Z,3.60
2022-10-22T17:46:23.643Z,3.90
2022-10-22T17:48:54.791Z,3.65
2022-10-22T17:51:22.177Z,3.47
2022-10-22T17:53:52.074Z,3.50
2022-10-22T17:56:21.711Z,4.07
2022-10-22T17:58:48.253Z,4.38
2022-10-22T18:01:21.894Z,7.63
2022-10-22T18:03:48.722Z,6.18
2022-10-22T18:06:15.313Z,5.45
2022-10-22T18:08:41.922Z,6.20
2022-10-22T18:11:10.854Z,6.28
2022-10-22T18:13:37.411Z,5.93
2022-10-22T18:16:04.753Z,6.97
2022-10-22T18:18:32.066Z,6.20
2022-10-22T18:21:00.405Z,5.35
2022-10-22T18:23:26.917Z,6.07
2022-10-22T18:25:53.538Z,6.13
2022-10-22T18:28:20.489Z,4.90
2022-10-22T18:30:47.772Z,8.32
2022-10-22T18:33:16.643Z,10.02
2022-10-22T18:35:43.490Z,8.90
2022-10-22T18:38:10.803Z,7.25
2022-10-22T18:40:45.534Z,7.63
2022-10-22T18:43:12.092Z,5.68
2022-10-22T18:45:42.954Z,5.85
2022-10-22T18:48:09.636Z,5.07
2022-10-22T18:50:36.098Z,5.50
2022-10-22T18:53:02.744Z,6.10
2022-10-22T18:55:29.246Z,5.72
2022-10-22T18:57:55.705Z,6.07
2022-10-22T19:00:22.115Z,6.50
2022-10-22T19:02:48.591Z,6.43
2022-10-22T19:05:15.230Z,5.13
2022-10-22T19:07:41.961Z,5.68
2022-10-22T19:10:08.728Z,5.70
2022-10-22T19:12:35.306Z,5.72
2022-10-22T19:15:01.766Z,5.85
2022-10-22T19:17:30.138Z,4.97
2022-10-22T19:19:56.634Z,4.75
2022-10-22T19:22:23.109Z,5.53
2022-10-22T19:24:50.592Z,5.10
2022-10-22T19:27:18.715Z,4.88
2022-10-22T19:29:45.922Z,4.78
2022-10-22T19:32:13.170Z,4.88
2022-10-22T19:34:41.053Z,4.78
2022-10-22T19:37:08.143Z,4.68
2022-10-22T19:39:34.551Z,5.82
2022-10-22T19:42:01.716Z,5.20
2022-10-22T19:44:28.168Z,6.18
2022-10-22T19:46:54.567Z,6.18
2022-10-22T19:49:22.978Z,5.80
2022-10-22T19:51:49.678Z,5.85
2022-10-22T19:54:18.508Z,5.80
2022-10-22T19:56:46.306Z,6.47
2022-10-22T19:59:14.593Z,5.80
2022-10-22T20:01:41.100Z,5.68
2022-10-22T20:04:07.591Z,5.47
2022-10-22T20:06:34.051Z,6.05
2022-10-22T20:09:02.668Z,6.00
2022-10-22T20:11:29.827Z,6.63
2022-10-22T20:13:57.097Z,6.75
2022-10-22T20:16:25.280Z,6.97
2022-10-22T20:18:52.771Z,7.32
2022-10-22T20:21:19.930Z,7.50
2022-10-22T20:23:47.468Z,7.00
2022-10-22T20:26:15.138Z,6.70
2022-10-22T20:28:41.605Z,6.80
2022-10-22T20:31:11.875Z,6.50
2022-10-22T20:33:38.268Z,7.60
2022-10-22T20:36:09.573Z,6.53
2022-10-22T20:41:11.286Z,6.20
2022-10-22T20:43:37.862Z,7.25
2022-10-22T20:46:06.005Z,6.57
2022-10-22T20:48:32.687Z,6.45
2022-10-22T20:50:59.970Z,5.30
2022-10-22T20:53:26.902Z,7.00
2022-10-22T20:55:56.532Z,6.28
2022-10-22T20:58:25.949Z,5.82
2022-10-22T21:00:54.601Z,4.93
2022-10-22T21:03:21.130Z,5.22
2022-10-22T21:05:47.658Z,4.50
2022-10-22T21:08:17.375Z,4.68
2022-10-22T21:10:46.343Z,4.20
2022-10-22T21:13:13.707Z,3.97
2022-10-22T21:15:40.126Z,4.53
2022-10-22T21:18:07.028Z,3.70
2022-10-22T21:20:33.840Z,4.15
2022-10-22T21:23:00.723Z,4.00
2022-10-22T21:25:27.185Z,3.30
2022-10-22T21:27:53.633Z,4.25
2022-10-22T21:30:20.038Z,4.78
2022-10-22T21:32:46.462Z,3.55
2022-10-22T21:35:13.142Z,3.88
2022-10-22T21:37:39.885Z,4.78
2022-10-22T21:40:07.187Z,6.25
2022-10-22T21:42:34.205Z,4.30
2022-10-22T21:45:00.700Z,4.88
2022-10-22T21:47:27.180Z,4.15
2022-10-22T21:49:53.842Z,5.20
2022-10-22T21:52:20.279Z,5.60
2022-10-22T21:54:46.729Z,5.72
2022-10-22T21:57:13.146Z,5.57
2022-10-22T21:59:39.582Z,5.45
2022-10-22T22:02:06.172Z,5.60
2022-10-22T22:04:33.056Z,4.75
2022-10-22T22:06:59.608Z,4.95
2022-10-22T22:09:26.957Z,5.50
2022-10-22T22:11:53.431Z,4.93
2022-10-22T22:14:19.842Z,5.13
2022-10-22T22:16:46.290Z,4.80
2022-10-22T22:19:12.764Z,4.93
2022-10-22T22:21:40.369Z,5.28
2022-10-22T22:24:07.878Z,5.15
2022-10-22T22:26:34.484Z,4.57
2022-10-22T22:29:01.087Z,4.47
2022-10-22T22:31:30.666Z,4.63
2022-10-22T22:34:06.626Z,5.10
2022-10-22T22:36:38.701Z,5.00
2022-10-22T22:39:06.808Z,5.50
2022-10-22T22:41:33.526Z,4.95
2022-10-22T22:44:00.292Z,5.13
2022-10-22T22:46:26.843Z,4.78
2022-10-22T22:48:53.285Z,4.82
2022-10-22T22:51:19.750Z,5.35
2022-10-22T22:53:46.555Z,4.25
2022-10-22T22:56:22.094Z,5.90
2022-10-22T22:58:49.000Z,5.72
2022-10-22T23:01:23.089Z,5.97
2022-10-22T23:04:04.231Z,5.47
2022-10-22T23:06:32.552Z,5.45
2022-10-22T23:08:59.536Z,5.45
2022-10-22T23:11:27.121Z,5.70
2022-10-22T23:13:58.663Z,6.03
2022-10-22T23:16:27.381Z,6.00
2022-10-22T23:18:55.742Z,5.80
2022-10-22T23:21:25.282Z,5.78
2022-10-22T23:23:54.562Z,5.95
2022-10-22T23:26:24.062Z,5.80
2022-10-22T23:28:50.743Z,6.05
2022-10-22T23:31:18.773Z,5.57
2022-10-22T23:33:46.008Z,5.80
2022-10-22T23:36:13.755Z,5.10
2022-10-22T23:38:41.102Z,5.38
2022-10-22T23:41:09.399Z,6.28
2022-10-22T23:43:36.292Z,6.20
2022-10-22T23:46:04.704Z,6.28
2022-10-22T23:48:31.365Z,6.97
2022-10-22T23:50:57.868Z,7.60
2022-10-22T23:53:24.326Z,7.85
2022-10-22T23:55:51.129Z,7.75
2022-10-22T23:58:17.827Z,8.20
